Jenkintown, PA (19046)

10:22 AM EDT on September 02, 2015 (GMT -0400)
Tyson Green | | Change Station
CLOSE
Current Station
Personal Weather Station
Location: Abington, PA
Elevation: 351 ft
Nearby Weather Stations

Elev 351 ft 40.12 °N, 75.12 °W | Updated 19 seconds ago

Partly Cloudy
Partly Cloudy
81.8 °F
Feels Like 87 °F
N
0.0
Wind Variable Wind from SE
Gusts 0.0 mph

Today
High -- | Low -- °F
--% Chance of Precip.
Yesterday
High -- | Low -- °F
Precip. -- in
6:28 AM 7:30 PM
Waning Gibbous, 80% visible
Pressure 30.04 in
Visibility 3.0 miles
Clouds Clear
Heat Index 87 °F
Dew Point 72 °F
Humidity 73%
Rainfall 0.00 in
Snow Depth Not available.
UV 5 out of 12
Pollen 9.80 out of 12
Air Quality Not available.
Flu Activity Not available.
SPECI KPNE 021407Z 10003KT 3SM HZ CLR 26/21 A3004 RMK AO2 T02560206
Pressure 30.04 in
Visibility 3.0 miles
Clouds Clear
Heat Index 87 °F
Dew Point 72 °F
Humidity 73%
Rainfall 0.00 in
Snow Depth Not available.
UV 5 out of 12
Pollen 9.80 out of 12
Air Quality Not available.
Flu Activity Not available.
SPECI KPNE 021407Z 10003KT 3SM HZ CLR 26/21 A3004 RMK AO2 T02560206

10-Day Weather Forecast

×

Almanac

Astronomy

Sep. 02, 2015 Rise Set
Actual Time
Civil Twilight
Nautical Twilight
Astronomical Twilight
Moon
Length of Visible Light
Length of Day
Tomorrow will be .
, % of the Moon is Illuminated

Today's Extremes

State Highs State Lows

Community

WunderPhotos

Upload Photos

1,851,763 photos uploaded!

WunderBlogs® & News

Nearby

Air Quality

  Air Quality AQ Index Pollutant
Not available.

Snow Depth

Station Depth Elevation

Earthquake Activity

City Distance Mag. Time & Date
Minimum magnitude displayed is 2.5.

Coastal Water Temperatures

Place Temperature

Stations

Nearby Weather Stations

Station Location Temp. Windchill Dew Point Humidity Wind Precip. Elev Updated Type